Time;durP1;ratioP1;P1;durP2;ratioP2;P2;SDS_P1;SDS_P2;PMS_P1;PMS_P2;Temp;Humidity;BMP_temperature;BMP_pressure;BME280_temperature;BME280_humidity;BME280_pressure;Samples;Min_cycle;Max_cycle;Signal;HPM_P1;HPM_P2
2023/05/25 00:01:17;;;;;;;10.45;8.82;;;460.80;2380.80;;;;;;5012694;28;20029;-54
2023/05/25 00:03:44;;;;;;;11.77;9.63;;;460.80;2380.80;;;;;;5012670;28;20026;-56
2023/05/25 00:06:10;;;;;;;13.77;9.73;;;436.10;2355.20;;;;;;5012548;28;20034;-54
2023/05/25 00:08:39;;;;;;;12.60;9.77;;;436.00;2355.20;;;;;;5012081;28;20034;-54
2023/05/25 00:11:05;;;;;;;12.63;9.77;;;435.90;2355.20;;;;;;5012094;28;20072;-53
2023/05/25 00:13:31;;;;;;;11.02;9.43;;;460.80;2380.80;;;;;;5012364;28;20022;-61
2023/05/25 00:15:57;;;;;;;13.48;10.65;;;460.90;2380.80;;;;;;5014566;28;20383;-61
2023/05/25 00:18:23;;;;;;;11.40;9.57;;;461.00;2380.80;;;;;;5032112;28;20035;-60
2023/05/25 00:20:52;;;;;;;11.45;8.70;;;461.10;2380.80;;;;;;5016551;28;20088;-61
2023/05/25 00:23:19;;;;;;;10.98;9.13;;;461.10;2380.80;;;;;;5011914;28;20017;-63
2023/05/25 00:25:45;;;;;;;13.10;8.90;;;461.00;2380.80;;;;;;5012692;28;20030;-63
2023/05/25 00:28:11;;;;;;;12.57;9.05;;;460.90;2380.80;;;;;;5014102;28;20018;-60
2023/05/25 00:30:37;;;;;;;11.52;9.30;;;461.10;2380.80;;;;;;5023639;28;20029;-54
2023/05/25 00:33:03;;;;;;;12.23;9.00;;;461.00;2380.80;;;;;;5013103;28;20032;-56
2023/05/25 00:35:28;;;;;;;13.02;9.15;;;461.00;2380.80;;;;;;5021317;28;20076;-55
2023/05/25 00:37:54;;;;;;;17.00;9.02;;;460.90;2380.80;;;;;;5028197;28;20046;-54
2023/05/25 00:40:21;;;;;;;12.15;8.20;;;460.80;2380.80;;;;;;5011926;28;20033;-54
2023/05/25 00:42:46;;;;;;;12.10;9.45;;;460.80;2380.80;;;;;;5011766;28;20022;-56
2023/05/25 00:45:12;;;;;;;13.15;9.52;;;436.10;2355.20;;;;;;5012269;28;20515;-60
2023/05/25 00:47:43;;;;;;;13.15;9.15;;;436.10;2355.20;;;;;;5010586;28;20033;-58
2023/05/25 00:50:12;;;;;;;11.07;8.98;;;436.00;2355.20;;;;;;5012275;28;20037;-60
2023/05/25 00:52:37;;;;;;;13.50;9.20;;;436.00;2355.20;;;;;;5021792;28;20025;-60
2023/05/25 00:55:06;;;;;;;14.52;9.35;;;436.00;2355.20;;;;;;5013871;28;20025;-61
2023/05/25 00:57:36;;;;;;;12.32;9.30;;;436.00;2355.20;;;;;;5011566;28;20097;-55
2023/05/25 01:00:04;;;;;;;9.98;8.88;;;436.00;2355.20;;;;;;5010462;28;20034;-55
2023/05/25 01:02:32;;;;;;;10.18;9.00;;;460.80;2380.80;;;;;;5011441;28;20030;-55
2023/05/25 01:05:01;;;;;;;14.68;8.85;;;460.80;2380.80;;;;;;5027836;28;20048;-55
2023/05/25 01:07:29;;;;;;;13.57;9.10;;;460.90;2380.80;;;;;;5031045;28;20034;-55
2023/05/25 01:10:01;;;;;;;10.93;9.15;;;461.00;2380.80;;;;;;5030350;28;20029;-56
2023/05/25 01:12:29;;;;;;;10.55;9.43;;;461.10;2380.80;;;;;;5031033;28;20032;-55
2023/05/25 01:14:55;;;;;;;11.75;9.40;;;461.20;2380.80;;;;;;5031109;28;20157;-56
2023/05/25 01:17:21;;;;;;;11.82;9.07;;;461.20;2380.80;;;;;;5031096;28;20025;-55
2023/05/25 01:19:47;;;;;;;10.70;8.95;;;461.20;2380.80;;;;;;5030826;28;20062;-54
2023/05/25 01:22:17;;;;;;;13.20;9.15;;;461.20;2380.80;;;;;;5031138;28;20104;-56
2023/05/25 01:25:01;;;;;;;10.18;8.35;;;461.20;2380.80;;;;;;5030535;28;20066;-56
2023/05/25 01:27:31;;;;;;;;;;;461.30;2380.80;;;;;;5030955;28;20538;-54
2023/05/25 01:29:58;;;;;;;11.32;9.00;;;461.20;2380.80;;;;;;5030718;28;19928;-54
2023/05/25 01:32:25;;;;;;;10.13;8.13;;;461.10;2380.80;;;;;;5030377;28;20025;-55
2023/05/25 01:34:53;;;;;;;10.70;8.88;;;461.10;2380.80;;;;;;5030947;28;20036;-55
2023/05/25 01:37:22;;;;;;;10.60;8.77;;;461.10;2380.80;;;;;;5030395;28;20244;-55
2023/05/25 01:39:47;;;;;;;12.32;9.88;;;461.00;2380.80;;;;;;5029977;28;20041;-55
2023/05/25 01:42:13;;;;;;;12.95;9.40;;;461.10;2380.80;;;;;;5030939;28;20025;-55
2023/05/25 01:44:39;;;;;;;10.70;8.23;;;461.10;2380.80;;;;;;5030726;28;20052;-55
2023/05/25 01:47:19;;;;;;;10.00;9.00;;;461.20;2380.80;;;;;;5030342;28;20491;-55
2023/05/25 01:50:30;;;;;;;12.20;9.52;;;461.10;2380.80;;;;;;5030279;28;20088;-55
2023/05/25 01:53:02;;;;;;;12.65;8.88;;;461.10;2380.80;;;;;;5007928;28;20033;-54
2023/05/25 01:55:32;;;;;;;10.65;9.48;;;461.00;2380.80;;;;;;5008159;28;20075;-54
2023/05/25 01:58:00;;;;;;;10.95;9.27;;;461.00;2380.80;;;;;;5007922;28;20077;-54
2023/05/25 02:00:30;;;;;;;11.88;9.50;;;461.10;2380.80;;;;;;5007772;28;20138;-55
2023/05/25 02:02:57;;;;;;;12.57;9.93;;;461.10;2380.80;;;;;;5007825;28;20105;-55
2023/05/25 02:05:22;;;;;;;10.88;9.50;;;461.10;2380.80;;;;;;5008030;28;20034;-55
2023/05/25 02:07:48;;;;;;;13.27;9.55;;;461.10;2380.80;;;;;;5007998;28;20546;-55
2023/05/25 02:10:14;;;;;;;13.80;10.25;;;461.10;2380.80;;;;;;5007794;28;20030;-55
2023/05/25 02:12:39;;;;;;;19.08;10.25;;;461.10;2380.80;;;;;;5007766;28;20126;-56
2023/05/25 02:15:06;;;;;;;13.93;10.15;;;461.20;2380.80;;;;;;5007260;28;20148;-55
2023/05/25 02:17:31;;;;;;;12.60;9.55;;;461.30;2380.80;;;;;;5007172;28;20112;-54
2023/05/25 02:19:57;;;;;;;27.08;13.23;;;461.30;2380.80;;;;;;5007778;28;20512;-60
2023/05/25 02:22:23;;;;;;;16.45;12.63;;;461.20;2380.80;;;;;;5007805;28;20026;-58
2023/05/25 02:24:48;;;;;;;17.10;12.45;;;461.10;2380.80;;;;;;5017985;28;20034;-54
2023/05/25 02:27:14;;;;;;;22.50;13.63;;;461.10;2380.80;;;;;;5029901;28;20113;-56
2023/05/25 02:29:40;;;;;;;13.15;11.45;;;461.20;2380.80;;;;;;5029907;28;20021;-56
2023/05/25 02:32:06;;;;;;;13.77;11.43;;;461.20;2380.80;;;;;;5029583;28;20871;-63
2023/05/25 02:34:32;;;;;;;16.75;12.15;;;461.30;2380.80;;;;;;5029811;28;20435;-54
2023/05/25 02:37:00;;;;;;;13.50;11.45;;;461.30;2380.80;;;;;;5029114;28;20133;-62
2023/05/25 02:39:26;;;;;;;13.70;11.82;;;461.30;2380.80;;;;;;5029054;28;20108;-55
2023/05/25 02:41:53;;;;;;;14.82;11.38;;;461.30;2380.80;;;;;;5029281;28;20045;-56
2023/05/25 02:44:19;;;;;;;15.05;12.40;;;461.30;2380.80;;;;;;5029860;28;20036;-61
2023/05/25 02:46:45;;;;;;;14.57;11.98;;;461.30;2380.80;;;;;;5029198;28;20468;-55
2023/05/25 02:49:10;;;;;;;13.70;12.07;;;461.20;2380.80;;;;;;5029538;28;20083;-62
2023/05/25 02:51:36;;;;;;;16.38;12.93;;;461.20;2380.80;;;;;;5029271;28;20072;-54
2023/05/25 02:54:02;;;;;;;14.25;12.75;;;461.20;2380.80;;;;;;5028979;28;20376;-55
2023/05/25 02:56:28;;;;;;;17.25;13.32;;;461.20;2380.80;;;;;;5029114;28;20026;-57
2023/05/25 02:58:53;;;;;;;16.92;12.75;;;461.20;2380.80;;;;;;5029066;28;20026;-61
2023/05/25 03:01:19;;;;;;;16.10;13.73;;;461.10;2380.80;;;;;;5029211;28;20064;-55
2023/05/25 03:03:46;;;;;;;17.20;13.38;;;461.20;2380.80;;;;;;5029521;28;20443;-55
2023/05/25 03:06:13;;;;;;;16.02;12.63;;;461.10;2380.80;;;;;;5029212;28;20033;-55
2023/05/25 03:08:40;;;;;;;15.00;12.55;;;461.10;2380.80;;;;;;5028731;28;20048;-55
2023/05/25 03:11:06;;;;;;;17.90;13.38;;;461.20;2380.80;;;;;;5028728;28;20120;-55
2023/05/25 03:13:31;;;;;;;20.83;13.43;;;461.20;2380.80;;;;;;5029222;28;20107;-55
2023/05/25 03:15:57;;;;;;;15.82;13.15;;;461.30;2380.80;;;;;;5028900;28;20029;-55
2023/05/25 03:18:23;;;;;;;14.98;12.30;;;461.30;2380.80;;;;;;5028926;28;20026;-54
2023/05/25 03:20:48;;;;;;;14.45;12.57;;;461.30;2380.80;;;;;;5029393;28;20432;-55
2023/05/25 03:23:14;;;;;;;16.80;12.93;;;461.30;2380.80;;;;;;5030381;28;20021;-54
2023/05/25 03:25:40;;;;;;;14.45;11.88;;;461.20;2380.80;;;;;;5032900;28;20048;-59
2023/05/25 03:28:05;;;;;;;15.52;13.23;;;461.30;2380.80;;;;;;5032992;28;20105;-55
2023/05/25 03:30:31;;;;;;;14.60;12.05;;;461.30;2380.80;;;;;;5032997;28;20033;-55
2023/05/25 03:32:57;;;;;;;16.30;11.98;;;461.40;2380.80;;;;;;5032806;28;20100;-56
2023/05/25 03:35:22;;;;;;;14.55;11.48;;;461.40;2380.80;;;;;;5032954;28;20032;-55
2023/05/25 03:37:48;;;;;;;15.00;11.45;;;461.40;2380.80;;;;;;5032662;28;20474;-55
2023/05/25 03:40:14;;;;;;;13.85;12.45;;;461.40;2380.80;;;;;;5032571;28;20064;-55
2023/05/25 03:42:39;;;;;;;15.18;11.50;;;461.50;2380.80;;;;;;5033184;28;20026;-54
2023/05/25 03:45:07;;;;;;;15.20;11.82;;;461.50;2380.80;;;;;;5032472;28;20025;-55
2023/05/25 03:47:34;;;;;;;20.65;12.57;;;461.40;2380.80;;;;;;5032445;28;20022;-56
2023/05/25 03:50:00;;;;;;;13.80;10.00;;;461.40;2380.80;;;;;;5032760;28;20053;-55
2023/05/25 03:52:26;;;;;;;14.13;11.45;;;461.40;2380.80;;;;;;5012395;28;20483;-62
2023/05/25 03:54:51;;;;;;;15.98;10.95;;;461.40;2380.80;;;;;;5011824;28;20037;-54
2023/05/25 03:57:17;;;;;;;15.25;11.90;;;461.50;2380.80;;;;;;5011375;28;20022;-60
2023/05/25 03:59:43;;;;;;;13.52;11.15;;;461.40;2380.80;;;;;;5012099;28;20053;-56
2023/05/25 04:02:08;;;;;;;14.18;11.20;;;461.40;2380.80;;;;;;5011560;28;20052;-54
2023/05/25 04:04:34;;;;;;;13.05;11.27;;;461.40;2380.80;;;;;;5011645;28;20116;-55
2023/05/25 04:07:00;;;;;;;13.15;9.57;;;461.50;2380.80;;;;;;5012885;28;20030;-55
2023/05/25 04:09:26;;;;;;;12.90;9.95;;;461.50;2380.80;;;;;;5031295;28;20025;-55
2023/05/25 04:11:51;;;;;;;11.52;9.85;;;461.50;2380.80;;;;;;5032201;28;20558;-56
2023/05/25 04:14:19;;;;;;;11.75;10.55;;;461.60;2380.80;;;;;;5031982;28;20026;-56
2023/05/25 04:16:45;;;;;;;11.68;9.10;;;461.60;2380.80;;;;;;5032169;28;20029;-64
2023/05/25 04:19:11;;;;;;;12.93;9.40;;;461.60;2380.80;;;;;;5031861;28;20052;-64
2023/05/25 04:21:36;;;;;;;11.98;9.43;;;461.60;2380.80;;;;;;5031803;28;20044;-56
2023/05/25 04:24:02;;;;;;;11.73;9.45;;;461.60;2380.80;;;;;;5031814;28;20447;-56
2023/05/25 04:26:28;;;;;;;14.57;11.60;;;461.60;2380.80;;;;;;5031389;28;20423;-59
2023/05/25 04:28:55;;;;;;;14.52;10.18;;;461.50;2380.80;;;;;;5031888;28;20034;-57
2023/05/25 04:31:21;;;;;;;12.00;10.10;;;461.70;2380.80;;;;;;5032136;28;20022;-56
2023/05/25 04:33:46;;;;;;;14.35;11.55;;;461.70;2380.80;;;;;;5031076;28;20019;-57
2023/05/25 04:36:13;;;;;;;13.38;10.80;;;486.40;2380.80;;;;;;5031340;28;20131;-58
2023/05/25 04:38:40;;;;;;;11.10;9.27;;;486.50;2380.80;;;;;;5031225;28;20065;-56
2023/05/25 04:41:06;;;;;;;12.68;10.52;;;486.60;2380.80;;;;;;5031562;28;20108;-55
2023/05/25 04:43:32;;;;;;;11.73;9.80;;;486.70;2380.80;;;;;;5031883;28;20053;-56
2023/05/25 04:45:58;;;;;;;11.23;9.88;;;486.90;2380.80;;;;;;5031489;28;20515;-56
2023/05/25 04:48:27;;;;;;;12.57;10.60;;;487.10;2380.80;;;;;;5031166;28;20100;-65
2023/05/25 04:50:54;;;;;;;11.95;9.63;;;487.30;2380.80;;;;;;5031685;28;20074;-56
2023/05/25 04:53:21;;;;;;;10.55;9.20;;;512.10;2380.80;;;;;;5031172;28;20025;-64
2023/05/25 04:55:48;;;;;;;11.00;8.48;;;512.80;2380.80;;;;;;5030964;28;20052;-55
2023/05/25 04:58:14;;;;;;;12.23;8.82;;;538.50;2406.40;;;;;;5031242;28;20049;-56
2023/05/25 05:00:40;;;;;;;10.35;9.10;;;614.80;2432.00;;;;;;5031370;28;20033;-61
2023/05/25 05:03:06;;;;;;;11.23;8.73;;;666.10;2278.40;;;;;;5030865;28;20021;-56
2023/05/25 05:05:33;;;;;;;12.48;7.95;;;640.50;2252.80;;;;;;5031182;28;20075;-56
2023/05/25 05:07:59;;;;;;;12.68;8.30;;;614.80;2380.80;;;;;;5031337;28;20103;-56
2023/05/25 05:10:24;;;;;;;9.27;8.35;;;589.20;2432.00;;;;;;5031200;28;20452;-62
2023/05/25 05:12:50;;;;;;;9.40;8.35;;;563.90;2432.00;;;;;;5031228;28;20041;-56
2023/05/25 05:15:16;;;;;;;13.23;9.32;;;563.30;2432.00;;;;;;5031026;28;20057;-56
2023/05/25 05:17:41;;;;;;;10.55;9.13;;;538.40;2406.40;;;;;;5031200;28;20025;-63
2023/05/25 05:20:08;;;;;;;14.15;8.35;;;538.10;2406.40;;;;;;5030830;28;20037;-55
2023/05/25 05:22:33;;;;;;;11.45;8.13;;;537.90;2406.40;;;;;;5030580;28;20430;-57
2023/05/25 05:24:59;;;;;;;9.90;8.02;;;538.00;2406.40;;;;;;5030719;28;20029;-59
2023/05/25 05:27:25;;;;;;;10.52;7.45;;;537.80;2406.40;;;;;;5030444;28;20072;-62
2023/05/25 05:29:51;;;;;;;12.38;8.65;;;537.80;2406.40;;;;;;5030755;28;20021;-55
2023/05/25 05:32:17;;;;;;;9.50;7.63;;;537.90;2406.40;;;;;;5030442;28;20079;-62
2023/05/25 05:34:42;;;;;;;12.82;8.70;;;538.10;2406.40;;;;;;5030672;28;20125;-56
2023/05/25 05:37:08;;;;;;;11.60;9.07;;;538.50;2406.40;;;;;;5030182;28;20064;-61
2023/05/25 05:39:34;;;;;;;9.50;8.07;;;589.60;2432.00;;;;;;5030198;28;20041;-56
2023/05/25 05:42:00;;;;;;;9.77;7.70;;;589.70;2432.00;;;;;;5030281;28;20051;-57
2023/05/25 05:44:26;;;;;;;8.65;7.55;;;589.70;2432.00;;;;;;5029988;28;20076;-62
2023/05/25 05:46:52;;;;;;;9.93;8.55;;;614.50;2432.00;;;;;;5030076;28;20464;-55
2023/05/25 05:49:17;;;;;;;10.98;8.45;;;614.60;2432.00;;;;;;5030450;28;20064;-56
2023/05/25 05:51:43;;;;;;;8.20;7.18;;;614.90;2406.40;;;;;;5030472;28;20049;-57
2023/05/25 05:54:09;;;;;;;16.80;8.57;;;640.00;2329.60;;;;;;5030214;28;20029;-56
2023/05/25 05:56:35;;;;;;;11.30;8.20;;;640.60;2227.20;;;;;;5029693;28;20029;-56
2023/05/25 05:59:00;;;;;;;10.15;8.52;;;717.50;2022.40;;;;;;5029894;28;20037;-57
2023/05/25 06:01:26;;;;;;;10.30;7.80;;;794.40;1766.40;;;;;;5030026;28;20025;-61
2023/05/25 06:03:53;;;;;;;9.18;7.80;;;820.10;1664.00;;;;;;5030189;28;20028;-56
2023/05/25 06:06:18;;;;;;;9.60;8.70;;;896.50;1510.40;;;;;;5030074;28;20033;-56
2023/05/25 06:08:45;;;;;;;10.75;8.75;;;922.50;1433.60;;;;;;5029636;28;20349;-56
2023/05/25 06:11:10;;;;;;;9.15;7.93;;;948.10;1331.20;;;;;;5029896;28;20109;-57
2023/05/25 06:13:36;;;;;;;9.82;8.93;;;973.40;1305.60;;;;;;5029653;28;20043;-57
2023/05/25 06:16:02;;;;;;;9.75;8.85;;;998.80;1305.60;;;;;;5029932;28;20029;-56
2023/05/25 06:18:28;;;;;;;9.43;8.63;;;1024.10;1228.80;;;;;;5029708;28;20021;-56
2023/05/25 06:20:53;;;;;;;10.77;9.68;;;1024.50;1228.80;;;;;;5029684;28;20095;-56
2023/05/25 06:23:19;;;;;;;10.20;9.23;;;1024.70;1203.20;;;;;;5029648;28;20080;-57
2023/05/25 06:25:45;;;;;;;11.13;10.07;;;1050.00;1203.20;;;;;;5029474;28;20031;-57
2023/05/25 06:28:11;;;;;;;10.80;8.88;;;1050.50;1152.00;;;;;;5029855;28;20029;-57
2023/05/25 06:30:37;;;;;;;11.30;9.80;;;1076.10;1126.40;;;;;;5029374;28;20033;-57
2023/05/25 06:33:02;;;;;;;10.32;9.52;;;1101.40;1126.40;;;;;;5029651;28;20021;-57
2023/05/25 06:35:28;;;;;;;9.88;9.07;;;1101.30;1100.80;;;;;;5028946;28;20072;-57
2023/05/25 06:37:54;;;;;;;10.30;9.38;;;1076.10;1100.80;;;;;;5028970;28;20057;-57
2023/05/25 06:40:20;;;;;;;11.10;10.05;;;1101.40;1075.20;;;;;;5029284;28;20040;-57
2023/05/25 06:42:46;;;;;;;10.80;9.50;;;1126.70;1075.20;;;;;;5029292;28;20463;-57
2023/05/25 06:45:12;;;;;;;10.23;9.32;;;1101.60;1075.20;;;;;;5029540;28;20167;-57
2023/05/25 06:47:38;;;;;;;11.40;10.50;;;1101.00;1100.80;;;;;;5029254;28;20030;-60
2023/05/25 06:50:05;;;;;;;18.58;11.02;;;1101.40;1075.20;;;;;;5028831;28;20099;-60
2023/05/25 06:52:31;;;;;;;10.65;9.75;;;1101.60;1075.20;;;;;;5029565;28;20510;-60
2023/05/25 06:54:57;;;;;;;11.43;10.52;;;1152.10;1024.00;;;;;;5028986;28;20049;-61
2023/05/25 06:57:23;;;;;;;11.82;10.68;;;1152.60;1049.60;;;;;;5028667;28;20383;-62
2023/05/25 06:59:49;;;;;;;11.68;10.45;;;1177.70;1024.00;;;;;;5028919;28;20064;-61
2023/05/25 07:02:15;;;;;;;10.50;9.75;;;1178.00;998.40;;;;;;5029095;28;20021;-61
2023/05/25 07:04:40;;;;;;;11.85;9.30;;;1178.00;998.40;;;;;;5029072;28;20036;-61
2023/05/25 07:07:06;;;;;;;11.23;10.38;;;1178.20;998.40;;;;;;5028607;28;20861;-61
2023/05/25 07:09:32;;;;;;;11.40;10.52;;;1178.50;998.40;;;;;;5028900;28;20117;-61
2023/05/25 07:11:58;;;;;;;12.75;11.68;;;1152.60;1024.00;;;;;;5029035;28;20096;-61
2023/05/25 07:14:24;;;;;;;11.95;11.00;;;1203.30;998.40;;;;;;5029057;28;20021;-60
2023/05/25 07:16:50;;;;;;;11.25;10.40;;;1178.20;947.20;;;;;;5029211;28;20018;-61
2023/05/25 07:19:15;;;;;;;11.32;10.52;;;1203.30;972.80;;;;;;5028812;28;20038;-61
2023/05/25 07:21:41;;;;;;;10.45;9.75;;;1203.90;972.80;;;;;;5028875;28;20092;-61
2023/05/25 07:24:07;;;;;;;10.18;9.45;;;1203.80;947.20;;;;;;5028710;28;20079;-61
2023/05/25 07:26:35;;;;;;;12.65;11.52;;;1203.70;947.20;;;;;;5028716;28;20025;-61
2023/05/25 07:29:01;;;;;;;10.75;9.98;;;1203.80;972.80;;;;;;5029024;28;20021;-62
2023/05/25 07:31:26;;;;;;;11.23;10.32;;;1178.00;998.40;;;;;;5028845;28;20036;-61
2023/05/25 07:33:54;;;;;;;12.30;11.18;;;1203.20;972.80;;;;;;5029065;28;20068;-61
2023/05/25 07:36:20;;;;;;;12.25;11.18;;;1178.00;972.80;;;;;;5027792;28;20112;-62
2023/05/25 07:38:46;;;;;;;12.65;11.73;;;1203.40;972.80;;;;;;5028063;28;20444;-62
2023/05/25 07:41:12;;;;;;;11.88;10.80;;;1178.30;972.80;;;;;;5028728;28;20025;-61
2023/05/25 07:43:38;;;;;;;12.88;11.75;;;1178.20;972.80;;;;;;5029087;28;20095;-62
2023/05/25 07:46:05;;;;;;;12.35;11.23;;;1203.40;998.40;;;;;;5028747;28;20041;-61
2023/05/25 07:48:30;;;;;;;13.23;12.15;;;1228.80;972.80;;;;;;5028707;28;20460;-61
2023/05/25 07:50:56;;;;;;;12.57;11.63;;;1228.80;947.20;;;;;;5028004;28;20038;-62
2023/05/25 07:53:22;;;;;;;10.65;9.95;;;1203.80;947.20;;;;;;5027994;28;20387;-60
2023/05/25 07:55:47;;;;;;;11.70;10.68;;;1203.30;947.20;;;;;;5028367;28;20456;-62
2023/05/25 07:58:13;;;;;;;11.35;10.55;;;1178.20;947.20;;;;;;5028401;28;20034;-61
2023/05/25 08:00:39;;;;;;;12.50;11.05;;;1178.30;947.20;;;;;;5028435;28;20045;-61
2023/05/25 08:03:05;;;;;;;12.05;11.15;;;1178.00;972.80;;;;;;5028466;28;20101;-61
2023/05/25 08:05:30;;;;;;;11.90;10.95;;;1178.20;972.80;;;;;;5028517;28;20061;-61
2023/05/25 08:07:56;;;;;;;12.15;11.10;;;1177.70;972.80;;;;;;5028393;28;20048;-61
2023/05/25 08:10:22;;;;;;;11.02;10.13;;;1127.30;998.40;;;;;;5031489;28;20025;-61
2023/05/25 08:12:48;;;;;;;11.02;10.23;;;1126.50;1049.60;;;;;;5032161;28;20431;-66
2023/05/25 08:15:14;;;;;;;10.88;10.07;;;1101.40;1024.00;;;;;;5031978;28;20383;-60
2023/05/25 08:17:40;;;;;;;9.30;8.35;;;1024.90;1075.20;;;;;;5032209;28;20018;-59
2023/05/25 08:20:07;;;;;;;8.40;7.70;;;948.10;1177.60;;;;;;5031978;28;20045;-60
2023/05/25 08:22:34;;;;;;;9.07;7.45;;;921.80;1280.00;;;;;;5031870;28;20444;-61
2023/05/25 08:24:59;;;;;;;8.07;7.38;;;896.00;1331.20;;;;;;5031900;28;20485;-60
2023/05/25 08:27:25;;;;;;;6.95;6.22;;;870.50;1382.40;;;;;;5031825;28;20096;-60
2023/05/25 08:29:51;;;;;;;8.95;7.13;;;845.10;1408.00;;;;;;5031927;28;20372;-60
2023/05/25 08:32:17;;;;;;;7.45;6.75;;;819.80;1459.20;;;;;;5030544;28;20121;-60
2023/05/25 08:34:42;;;;;;;7.45;5.95;;;819.50;1459.20;;;;;;5031280;28;20083;-60
2023/05/25 08:37:08;;;;;;;7.97;6.65;;;819.20;1510.40;;;;;;5030987;28;20235;-60
2023/05/25 08:39:34;;;;;;;7.57;5.60;;;819.20;1484.80;;;;;;5030645;28;20049;-60
2023/05/25 08:41:59;;;;;;;6.68;5.72;;;794.10;1433.60;;;;;;5031615;28;20407;-60
2023/05/25 08:44:26;;;;;;;6.30;5.70;;;794.00;1433.60;;;;;;5031563;28;20102;-60
2023/05/25 08:46:53;;;;;;;6.05;5.38;;;794.00;1433.60;;;;;;5031942;28;20018;-60
2023/05/25 08:49:21;;;;;;;5.75;5.15;;;793.70;1459.20;;;;;;5031393;28;20368;-60
2023/05/25 08:51:50;;;;;;;6.05;5.45;;;793.70;1510.40;;;;;;5031076;28;20468;-64
2023/05/25 08:54:27;;;;;;;6.35;5.60;;;768.80;1433.60;;;;;;5031153;28;20044;-60
2023/05/25 08:57:06;;;;;;;6.15;5.55;;;768.90;1484.80;;;;;;5031524;28;20030;-60
2023/05/25 08:59:56;;;;;;;6.30;5.63;;;793.70;1510.40;;;;;;5030122;28;20130;-64
2023/05/25 09:02:32;;;;;;;6.30;5.70;;;768.40;1510.40;;;;;;5030352;28;20475;-68
2023/05/25 09:05:00;;;;;;;6.60;5.63;;;768.40;1536.00;;;;;;5028856;28;20096;-60
2023/05/25 09:07:27;;;;;;;6.80;6.13;;;768.40;1510.40;;;;;;5029307;28;20018;-63
2023/05/25 09:09:54;;;;;;;6.75;6.05;;;768.10;1510.40;;;;;;5029594;28;20036;-60
2023/05/25 09:12:23;;;;;;;10.23;7.80;;;768.10;1510.40;;;;;;5029108;28;20034;-60
2023/05/25 09:14:49;;;;;;;6.25;5.65;;;768.10;1510.40;;;;;;5029544;28;20033;-59
2023/05/25 09:17:17;;;;;;;7.00;6.30;;;768.10;1510.40;;;;;;5028606;28;20037;-60
2023/05/25 09:19:43;;;;;;;7.63;6.03;;;743.10;1561.60;;;;;;5029578;28;20251;-60
2023/05/25 09:22:10;;;;;;;6.68;5.97;;;743.10;1510.40;;;;;;5028783;28;20025;-60
2023/05/25 09:24:36;;;;;;;6.13;5.38;;;743.30;1536.00;;;;;;5028732;28;20021;-58
2023/05/25 09:27:02;;;;;;;8.80;5.65;;;768.10;1587.20;;;;;;5029449;28;20188;-60
2023/05/25 09:29:28;;;;;;;12.00;9.43;;;743.20;1536.00;;;;;;5029547;28;20029;-57
2023/05/25 09:31:55;;;;;;;7.10;6.28;;;768.40;1510.40;;;;;;5028508;28;20025;-60
2023/05/25 09:34:21;;;;;;;6.93;5.80;;;768.30;1484.80;;;;;;5016563;28;20445;-58
2023/05/25 09:36:47;;;;;;;7.03;5.35;;;743.20;1484.80;;;;;;5027976;28;20141;-59
2023/05/25 09:39:13;;;;;;;7.75;5.15;;;743.10;1561.60;;;;;;5028945;28;20041;-58
2023/05/25 09:41:42;;;;;;;5.82;5.20;;;742.80;1484.80;;;;;;5028424;28;20021;-59
2023/05/25 09:44:08;;;;;;;6.60;5.82;;;742.90;1459.20;;;;;;5028012;28;20025;-60
2023/05/25 09:46:37;;;;;;;6.60;5.47;;;742.90;1484.80;;;;;;5028689;28;20025;-60
2023/05/25 09:49:07;;;;;;;6.05;5.40;;;743.00;1484.80;;;;;;5028419;28;20022;-57
2023/05/25 09:51:35;;;;;;;9.77;5.90;;;742.90;1510.40;;;;;;5028232;28;20609;-66
2023/05/25 09:54:02;;;;;;;7.00;5.47;;;742.90;1561.60;;;;;;5018533;28;20425;-66
2023/05/25 09:56:32;;;;;;;6.03;5.43;;;743.00;1536.00;;;;;;5013001;28;20032;-63
2023/05/25 09:58:58;;;;;;;6.50;5.78;;;743.30;1536.00;;;;;;5019269;28;20125;-59
2023/05/25 10:01:26;;;;;;;7.22;6.53;;;743.20;1510.40;;;;;;5012000;28;20035;-62
2023/05/25 10:03:55;;;;;;;7.53;5.82;;;743.00;1536.00;;;;;;5012444;28;20096;-59
2023/05/25 10:06:22;;;;;;;5.93;5.32;;;743.00;1561.60;;;;;;5019495;28;20017;-62
2023/05/25 10:08:48;;;;;;;6.03;5.43;;;743.00;1536.00;;;;;;5013956;28;20480;-58
2023/05/25 10:11:15;;;;;;;6.15;5.55;;;743.00;1536.00;;;;;;5017607;28;20071;-57
2023/05/25 10:13:45;;;;;;;6.40;5.80;;;742.70;1561.60;;;;;;5012818;28;20096;-64
2023/05/25 10:16:16;;;;;;;8.88;7.18;;;742.80;1561.60;;;;;;5020088;28;20025;-59
2023/05/25 10:19:04;;;;;;;7.03;6.03;;;742.80;1561.60;;;;;;5015039;28;20053;-59
2023/05/25 10:21:31;;;;;;;7.45;5.57;;;742.80;1587.20;;;;;;5020244;28;20426;-60
2023/05/25 10:24:05;;;;;;;6.78;5.63;;;717.50;1561.60;;;;;;5016152;28;20037;-62
2023/05/25 10:26:35;;;;;;;6.15;5.55;;;717.40;1587.20;;;;;;5014681;28;20105;-59
2023/05/25 10:29:03;;;;;;;6.68;5.80;;;717.40;1612.80;;;;;;5018556;28;20056;-66
2023/05/25 10:31:32;;;;;;;5.30;4.80;;;717.10;1612.80;;;;;;5021235;28;20056;-63
2023/05/25 10:33:59;;;;;;;7.50;5.78;;;716.90;1587.20;;;;;;5023574;28;20057;-58
2023/05/25 10:36:25;;;;;;;6.85;5.53;;;717.00;1612.80;;;;;;5020912;28;20022;-61
2023/05/25 10:38:51;;;;;;;8.00;5.63;;;717.00;1561.60;;;;;;5021407;28;20478;-60
2023/05/25 10:41:19;;;;;;;6.43;5.00;;;717.20;1561.60;;;;;;5021572;28;20089;-63
2023/05/25 10:43:46;;;;;;;5.93;4.90;;;717.30;1587.20;;;;;;5013948;28;20033;-63
2023/05/25 10:46:13;;;;;;;5.45;4.55;;;717.50;1510.40;;;;;;5017848;28;20037;-61
2023/05/25 10:48:45;;;;;;;6.03;4.70;;;742.40;1536.00;;;;;;5017733;28;20076;-62
2023/05/25 10:51:13;;;;;;;5.83;5.23;;;742.40;1587.20;;;;;;5014642;28;20096;-63
2023/05/25 10:53:46;;;;;;;6.35;5.03;;;742.60;1536.00;;;;;;5015738;28;20788;-58
2023/05/25 10:56:13;;;;;;;7.10;4.70;;;742.50;1561.60;;;;;;5020193;28;20112;-58
2023/05/25 10:58:43;;;;;;;5.18;4.53;;;717.60;1510.40;;;;;;5011905;28;20029;-58
2023/05/25 11:01:13;;;;;;;8.73;7.78;;;717.70;1536.00;;;;;;5014178;28;20124;-58
2023/05/25 11:04:17;;;;;;;7.70;6.38;;;717.60;1587.20;;;;;;5014788;28;20034;-65
2023/05/25 11:06:45;;;;;;;6.95;6.20;;;717.60;1612.80;;;;;;5024496;28;20245;-59
2023/05/25 11:09:25;;;;;;;6.75;5.75;;;717.30;1587.20;;;;;;5024465;28;20034;-58
2023/05/25 11:11:51;;;;;;;6.35;5.47;;;717.40;1587.20;;;;;;5024194;28;20045;-60
2023/05/25 11:14:21;;;;;;;6.63;5.85;;;716.80;1612.80;;;;;;5024482;28;20072;-62
2023/05/25 11:17:10;;;;;;;5.85;5.22;;;716.90;1612.80;;;;;;5023859;28;20061;-59
2023/05/25 11:19:50;;;;;;;10.10;5.30;;;716.80;1612.80;;;;;;5024260;28;20116;-60
2023/05/25 11:22:20;;;;;;;6.95;5.13;;;692.10;1587.20;;;;;;5024158;28;20026;-59
2023/05/25 11:24:50;;;;;;;5.30;4.78;;;717.00;1587.20;;;;;;5024147;28;20034;-63
2023/05/25 11:27:21;;;;;;;6.70;5.25;;;717.30;1587.20;;;;;;5024344;28;20048;-60
2023/05/25 11:29:51;;;;;;;7.15;6.20;;;717.40;1612.80;;;;;;5023701;28;20056;-62
2023/05/25 11:32:17;;;;;;;6.72;5.40;;;717.50;1638.40;;;;;;5024099;28;20030;-61
2023/05/25 11:34:45;;;;;;;6.60;5.32;;;717.60;1612.80;;;;;;5023684;28;20033;-59
2023/05/25 11:37:21;;;;;;;7.72;5.45;;;742.40;1612.80;;;;;;5024557;28;20037;-61
2023/05/25 11:39:48;;;;;;;6.38;5.68;;;742.40;1612.80;;;;;;5024323;28;20049;-62
2023/05/25 11:42:14;;;;;;;6.32;5.65;;;742.40;1587.20;;;;;;5023135;28;20022;-59
2023/05/25 11:44:40;;;;;;;8.98;5.88;;;717.60;1561.60;;;;;;5024596;28;20399;-59
2023/05/25 11:47:13;;;;;;;5.97;5.43;;;717.00;1612.80;;;;;;5024712;28;20033;-57
2023/05/25 11:49:44;;;;;;;;;;;716.80;1612.80;;;;;;5025394;28;20029;-66
2023/05/25 11:52:12;;;;;;;6.22;5.63;;;717.20;1612.80;;;;;;5026665;28;20019;-60
2023/05/25 11:54:39;;;;;;;5.97;5.38;;;717.10;1638.40;;;;;;5025961;28;20053;-62
2023/05/25 11:57:25;;;;;;;6.82;5.30;;;717.40;1638.40;;;;;;5026725;28;20021;-60
2023/05/25 12:00:00;;;;;;;7.40;5.32;;;717.50;1612.80;;;;;;5026961;28;20030;-61
2023/05/25 12:02:26;;;;;;;6.80;6.10;;;742.40;1612.80;;;;;;5026579;28;20025;-62
2023/05/25 12:05:02;;;;;;;10.55;5.97;;;717.50;1587.20;;;;;;5024920;28;20164;-61
2023/05/25 12:07:29;;;;;;;5.72;4.75;;;717.60;1587.20;;;;;;5024052;28;20040;-60
2023/05/25 12:10:05;;;;;;;6.20;4.95;;;717.70;1536.00;;;;;;5018528;28;20034;-59